EIN2CJ EGCC-EIDW
Flight info
| Callsign | EIN2CJ |
|---|---|
| Flight time | 0h 39m |
| Altitude | 28000 |
| Route | ASMIM L975 WAL L10 PENIL/N0397F240 L28 LELDO M145 BAGSO BAGSO3R |
| Aircraft | A20N/M-SDE2E3FGHIRWXY/LB1 |
Departure
| Time | 2026-05-04 12:50 |
|---|---|
| Airport | Manchester Airport (EGCC) |
Arrival
| Time | 2026-05-04 13:30 |
|---|---|
| Airport | Dublin Airport (EIDW) |
| Time | Latitude | Longitude | Altitude | Speed | Heading |
|---|---|---|---|---|---|
| 2026-05-04 12:13 | 53.36923 | -2.28746 | 233 ft | 0 kts | 135° |
| 2026-05-04 12:34 | 53.36923 | -2.28747 | 232 ft | 1 kts | 135° |
| 2026-05-04 12:34 | 53.36933 | -2.28764 | 232 ft | 2 kts | 135° |
| 2026-05-04 12:35 | 53.36944 | -2.28782 | 238 ft | 2 kts | 135° |
| 2026-05-04 12:35 | 53.36957 | -2.28795 | 234 ft | 1 kts | 195° |
| 2026-05-04 12:35 | 53.36962 | -2.28792 | 234 ft | 0 kts | 221° |
| 2026-05-04 12:39 | 53.36966 | -2.28786 | 237 ft | 0 kts | 221° |
| 2026-05-04 12:39 | 53.36954 | -2.28804 | 232 ft | 5 kts | 221° |
| 2026-05-04 12:39 | 53.36914 | -2.28869 | 232 ft | 10 kts | 225° |
| 2026-05-04 12:39 | 53.36859 | -2.28960 | 234 ft | 7 kts | 224° |
| 2026-05-04 12:40 | 53.36812 | -2.29033 | 232 ft | 11 kts | 218° |
| 2026-05-04 12:40 | 53.36742 | -2.29067 | 234 ft | 10 kts | 166° |
| 2026-05-04 12:40 | 53.36688 | -2.28986 | 232 ft | 8 kts | 134° |
| 2026-05-04 12:40 | 53.36657 | -2.28933 | 232 ft | 6 kts | 134° |
| 2026-05-04 12:41 | 53.36615 | -2.28862 | 232 ft | 11 kts | 134° |
| 2026-05-04 12:41 | 53.36585 | -2.28780 | 234 ft | 8 kts | 113° |
| 2026-05-04 12:41 | 53.36549 | -2.28694 | 236 ft | 9 kts | 133° |
| 2026-05-04 12:41 | 53.36509 | -2.28628 | 234 ft | 8 kts | 135° |
| 2026-05-04 12:42 | 53.36460 | -2.28546 | 234 ft | 10 kts | 134° |
| 2026-05-04 12:42 | 53.36418 | -2.28493 | 232 ft | 9 kts | 170° |
| 2026-05-04 12:42 | 53.36348 | -2.28503 | 232 ft | 11 kts | 162° |
| 2026-05-04 12:42 | 53.36283 | -2.28399 | 232 ft | 15 kts | 134° |
| 2026-05-04 12:43 | 53.36203 | -2.28261 | 234 ft | 18 kts | 134° |
| 2026-05-04 12:43 | 53.36160 | -2.28187 | 235 ft | 2 kts | 134° |
| 2026-05-04 12:43 | 53.36140 | -2.28152 | 232 ft | 7 kts | 134° |
| 2026-05-04 12:43 | 53.36098 | -2.28079 | 232 ft | 11 kts | 134° |
| 2026-05-04 12:44 | 53.36037 | -2.27975 | 234 ft | 13 kts | 135° |
| 2026-05-04 12:44 | 53.35977 | -2.27876 | 232 ft | 13 kts | 140° |
| 2026-05-04 12:44 | 53.35925 | -2.27846 | 232 ft | 0 kts | 184° |
| 2026-05-04 12:44 | 53.35909 | -2.27848 | 232 ft | 5 kts | 184° |
| 2026-05-04 12:45 | 53.35862 | -2.27855 | 232 ft | 9 kts | 187° |
| 2026-05-04 12:45 | 53.35785 | -2.27868 | 235 ft | 13 kts | 185° |
| 2026-05-04 12:45 | 53.35682 | -2.27886 | 232 ft | 13 kts | 186° |
| 2026-05-04 12:45 | 53.35628 | -2.27902 | 236 ft | 6 kts | 211° |
| 2026-05-04 12:46 | 53.35590 | -2.27972 | 236 ft | 10 kts | 231° |
| 2026-05-04 12:46 | 53.35534 | -2.28076 | 232 ft | 14 kts | 222° |
| 2026-05-04 12:46 | 53.35438 | -2.28155 | 235 ft | 17 kts | 191° |
| 2026-05-04 12:46 | 53.35310 | -2.28201 | 236 ft | 20 kts | 207° |
| 2026-05-04 12:47 | 53.35199 | -2.28367 | 232 ft | 23 kts | 231° |
| 2026-05-04 12:47 | 53.35094 | -2.28584 | 232 ft | 20 kts | 231° |
| 2026-05-04 12:47 | 53.35074 | -2.28624 | 234 ft | 5 kts | 231° |
| 2026-05-04 12:47 | 53.35043 | -2.28689 | 233 ft | 10 kts | 231° |
| 2026-05-04 12:48 | 53.34969 | -2.28819 | 232 ft | 21 kts | 226° |
| 2026-05-04 12:48 | 53.34866 | -2.29000 | 234 ft | 18 kts | 226° |
| 2026-05-04 12:48 | 53.34848 | -2.29032 | 232 ft | 4 kts | 226° |
| 2026-05-04 12:48 | 53.34813 | -2.29065 | 232 ft | 8 kts | 201° |
| 2026-05-04 12:49 | 53.34745 | -2.29068 | 232 ft | 12 kts | 165° |
| 2026-05-04 12:49 | 53.34675 | -2.28999 | 234 ft | 11 kts | 133° |
| 2026-05-04 12:49 | 53.34686 | -2.28918 | 233 ft | 0 kts | 48° |
| 2026-05-04 12:49 | 53.34707 | -2.28880 | 232 ft | 20 kts | 47° |
| 2026-05-04 12:50 | 53.34962 | -2.28348 | 237 ft | 94 kts | 51° |
| 2026-05-04 12:50 | 53.35502 | -2.27237 | 247 ft | 148 kts | 51° |
| 2026-05-04 12:50 | 53.36147 | -2.25872 | 813 ft | 148 kts | 51° |
| 2026-05-04 12:50 | 53.36717 | -2.24684 | 1488 ft | 144 kts | 51° |
| 2026-05-04 12:51 | 53.37351 | -2.23407 | 2151 ft | 143 kts | 50° |
| 2026-05-04 12:51 | 53.38038 | -2.22042 | 2523 ft | 165 kts | 51° |
| 2026-05-04 12:51 | 53.38968 | -2.20747 | 2990 ft | 184 kts | 20° |
| 2026-05-04 12:51 | 53.40294 | -2.20675 | 3510 ft | 206 kts | 342° |
| 2026-05-04 12:52 | 53.41508 | -2.22051 | 4088 ft | 228 kts | 308° |
| 2026-05-04 12:52 | 53.42305 | -2.24502 | 4751 ft | 254 kts | 292° |
| 2026-05-04 12:52 | 53.42963 | -2.27364 | 5102 ft | 268 kts | 290° |
| 2026-05-04 12:52 | 53.43696 | -2.30460 | 5133 ft | 309 kts | 293° |
| 2026-05-04 12:53 | 53.44613 | -2.33867 | 5782 ft | 325 kts | 295° |
| 2026-05-04 12:53 | 53.45589 | -2.37204 | 7250 ft | 311 kts | 297° |
| 2026-05-04 12:53 | 53.46514 | -2.40390 | 8804 ft | 294 kts | 291° |
| 2026-05-04 12:53 | 53.46906 | -2.43586 | 9746 ft | 271 kts | 272° |
| 2026-05-04 12:54 | 53.46698 | -2.46763 | 9892 ft | 281 kts | 259° |
| 2026-05-04 12:54 | 53.46305 | -2.50059 | 10427 ft | 297 kts | 259° |
| 2026-05-04 12:54 | 53.45890 | -2.53599 | 10905 ft | 320 kts | 259° |
| 2026-05-04 12:54 | 53.45467 | -2.57332 | 11485 ft | 336 kts | 259° |
| 2026-05-04 12:55 | 53.45035 | -2.61219 | 12443 ft | 341 kts | 259° |
| 2026-05-04 12:55 | 53.44602 | -2.65149 | 13408 ft | 345 kts | 259° |
| 2026-05-04 12:55 | 53.44164 | -2.69134 | 14283 ft | 350 kts | 259° |
| 2026-05-04 12:55 | 53.43731 | -2.73065 | 15066 ft | 355 kts | 259° |
| 2026-05-04 12:56 | 53.43268 | -2.77256 | 15902 ft | 361 kts | 259° |
| 2026-05-04 12:56 | 53.42823 | -2.81257 | 16689 ft | 366 kts | 259° |
| 2026-05-04 12:56 | 53.42356 | -2.85449 | 17460 ft | 371 kts | 259° |
| 2026-05-04 12:56 | 53.41864 | -2.89850 | 18259 ft | 376 kts | 259° |
| 2026-05-04 12:57 | 53.41380 | -2.94161 | 18912 ft | 382 kts | 259° |
| 2026-05-04 12:57 | 53.40894 | -2.98477 | 19515 ft | 388 kts | 259° |
| 2026-05-04 12:57 | 53.40384 | -3.02971 | 20206 ft | 393 kts | 259° |
| 2026-05-04 12:57 | 53.39956 | -3.06731 | 20703 ft | 396 kts | 265° |
| 2026-05-04 12:58 | 53.39765 | -3.11337 | 21128 ft | 402 kts | 274° |
| 2026-05-04 12:58 | 53.40371 | -3.15921 | 21774 ft | 404 kts | 292° |
| 2026-05-04 12:58 | 53.41712 | -3.20050 | 22423 ft | 406 kts | 306° |
| 2026-05-04 12:58 | 53.43418 | -3.23915 | 23062 ft | 410 kts | 309° |
| 2026-05-04 12:59 | 53.45144 | -3.27685 | 23682 ft | 415 kts | 309° |
| 2026-05-04 12:59 | 53.46896 | -3.31598 | 23979 ft | 417 kts | 309° |
| 2026-05-04 12:59 | 53.48612 | -3.35537 | 24062 ft | 417 kts | 308° |
| 2026-05-04 12:59 | 53.50304 | -3.39493 | 24067 ft | 417 kts | 308° |
| 2026-05-04 13:00 | 53.51965 | -3.43414 | 24069 ft | 417 kts | 307° |
| 2026-05-04 13:00 | 53.53640 | -3.47383 | 24069 ft | 417 kts | 307° |
| 2026-05-04 13:00 | 53.55237 | -3.51176 | 24072 ft | 417 kts | 307° |
| 2026-05-04 13:00 | 53.56958 | -3.55267 | 24072 ft | 416 kts | 307° |
| 2026-05-04 13:01 | 53.58626 | -3.59236 | 24073 ft | 416 kts | 307° |
| 2026-05-04 13:01 | 53.60285 | -3.63199 | 24071 ft | 416 kts | 306° |
| 2026-05-04 13:01 | 53.61773 | -3.67413 | 24076 ft | 418 kts | 298° |
| 2026-05-04 13:01 | 53.62940 | -3.71902 | 24076 ft | 419 kts | 293° |
| 2026-05-04 13:02 | 53.64012 | -3.76445 | 24071 ft | 418 kts | 294° |
| 2026-05-04 13:02 | 53.65106 | -3.81008 | 24076 ft | 418 kts | 294° |
| 2026-05-04 13:02 | 53.66185 | -3.85496 | 24077 ft | 418 kts | 294° |
| 2026-05-04 13:02 | 53.67274 | -3.90042 | 24079 ft | 418 kts | 294° |
| 2026-05-04 13:03 | 53.68352 | -3.94562 | 24081 ft | 418 kts | 294° |
| 2026-05-04 13:03 | 53.69440 | -3.99141 | 24077 ft | 418 kts | 294° |
| 2026-05-04 13:03 | 53.70511 | -4.03689 | 24076 ft | 418 kts | 292° |
| 2026-05-04 13:03 | 53.71350 | -4.08393 | 24079 ft | 420 kts | 284° |
| 2026-05-04 13:04 | 53.71831 | -4.13280 | 24079 ft | 421 kts | 277° |
| 2026-05-04 13:04 | 53.72020 | -4.18183 | 24076 ft | 422 kts | 275° |
| 2026-05-04 13:04 | 53.72202 | -4.23165 | 24080 ft | 422 kts | 275° |
| 2026-05-04 13:04 | 53.72390 | -4.28088 | 24082 ft | 422 kts | 275° |
| 2026-05-04 13:05 | 53.72574 | -4.32940 | 24076 ft | 422 kts | 275° |
| 2026-05-04 13:05 | 53.72760 | -4.37913 | 24078 ft | 422 kts | 275° |
| 2026-05-04 13:05 | 53.72940 | -4.42827 | 24073 ft | 422 kts | 275° |
| 2026-05-04 13:05 | 53.73119 | -4.47800 | 24071 ft | 422 kts | 275° |
| 2026-05-04 13:06 | 53.73294 | -4.52739 | 24074 ft | 422 kts | 275° |
| 2026-05-04 13:06 | 53.73466 | -4.57655 | 24072 ft | 422 kts | 275° |
| 2026-05-04 13:06 | 53.73637 | -4.62607 | 24074 ft | 422 kts | 275° |
| 2026-05-04 13:06 | 53.73805 | -4.67506 | 24072 ft | 422 kts | 275° |
| 2026-05-04 13:07 | 53.73972 | -4.72463 | 24078 ft | 422 kts | 275° |
| 2026-05-04 13:07 | 53.74137 | -4.77397 | 24077 ft | 422 kts | 275° |
| 2026-05-04 13:07 | 53.74299 | -4.82330 | 24071 ft | 422 kts | 275° |
| 2026-05-04 13:07 | 53.74462 | -4.87297 | 24076 ft | 422 kts | 275° |
| 2026-05-04 13:08 | 53.74623 | -4.92232 | 24086 ft | 422 kts | 275° |
| 2026-05-04 13:08 | 53.74782 | -4.97177 | 24086 ft | 422 kts | 275° |
| 2026-05-04 13:08 | 53.74940 | -5.02130 | 24087 ft | 422 kts | 275° |
| 2026-05-04 13:08 | 53.75095 | -5.07076 | 24087 ft | 422 kts | 275° |
| 2026-05-04 13:09 | 53.75080 | -5.11973 | 24087 ft | 423 kts | 266° |
| 2026-05-04 13:09 | 53.74644 | -5.16875 | 23875 ft | 423 kts | 258° |
| 2026-05-04 13:09 | 53.73802 | -5.21648 | 23212 ft | 426 kts | 251° |
| 2026-05-04 13:09 | 53.72822 | -5.26390 | 22288 ft | 429 kts | 251° |
| 2026-05-04 13:10 | 53.71845 | -5.31152 | 21419 ft | 429 kts | 251° |
| 2026-05-04 13:10 | 53.70876 | -5.35897 | 20734 ft | 424 kts | 251° |
| 2026-05-04 13:10 | 53.69902 | -5.40674 | 20304 ft | 444 kts | 251° |
| 2026-05-04 13:10 | 53.68871 | -5.45725 | 20262 ft | 470 kts | 251° |
| 2026-05-04 13:11 | 53.67855 | -5.51067 | 20220 ft | 482 kts | 256° |
| 2026-05-04 13:11 | 53.67119 | -5.56582 | 20173 ft | 478 kts | 258° |
| 2026-05-04 13:11 | 53.66659 | -5.60156 | 20033 ft | 464 kts | 258° |
| 2026-05-04 13:11 | 53.65776 | -5.66959 | 19689 ft | 433 kts | 258° |
| 2026-05-04 13:12 | 53.65144 | -5.71780 | 19266 ft | 412 kts | 258° |
| 2026-05-04 13:12 | 53.64528 | -5.76457 | 18396 ft | 404 kts | 258° |
| 2026-05-04 13:12 | 53.63920 | -5.81047 | 17371 ft | 398 kts | 258° |
| 2026-05-04 13:12 | 53.63319 | -5.85565 | 16387 ft | 392 kts | 258° |
| 2026-05-04 13:13 | 53.62928 | -5.88504 | 15755 ft | 387 kts | 258° |
| 2026-05-04 13:13 | 53.62144 | -5.94361 | 14525 ft | 379 kts | 258° |
| 2026-05-04 13:13 | 53.61762 | -5.97209 | 13919 ft | 375 kts | 258° |
| 2026-05-04 13:13 | 53.61191 | -6.01454 | 12928 ft | 369 kts | 258° |
| 2026-05-04 13:14 | 53.60460 | -6.06961 | 11966 ft | 354 kts | 261° |
| 2026-05-04 13:14 | 53.60454 | -6.10947 | 11676 ft | 333 kts | 282° |
| 2026-05-04 13:14 | 53.61031 | -6.14790 | 11434 ft | 343 kts | 285° |
| 2026-05-04 13:14 | 53.61423 | -6.17353 | 11266 ft | 340 kts | 285° |
| 2026-05-04 13:15 | 53.61992 | -6.21173 | 11015 ft | 334 kts | 284° |
| 2026-05-04 13:15 | 53.62723 | -6.26210 | 10706 ft | 335 kts | 284° |
| 2026-05-04 13:15 | 53.63091 | -6.28779 | 10535 ft | 333 kts | 284° |
| 2026-05-04 13:15 | 53.63621 | -6.32518 | 10445 ft | 322 kts | 284° |
| 2026-05-04 13:16 | 53.64292 | -6.37264 | 10290 ft | 304 kts | 284° |
| 2026-05-04 13:16 | 53.64769 | -6.40652 | 10145 ft | 292 kts | 284° |
| 2026-05-04 13:16 | 53.65227 | -6.43899 | 10041 ft | 279 kts | 284° |
| 2026-05-04 13:16 | 53.65521 | -6.45987 | 9969 ft | 271 kts | 284° |
| 2026-05-04 13:17 | 53.65946 | -6.49014 | 9856 ft | 259 kts | 284° |
| 2026-05-04 13:17 | 53.66350 | -6.51899 | 9666 ft | 250 kts | 284° |
| 2026-05-04 13:17 | 53.66745 | -6.54719 | 9475 ft | 244 kts | 284° |
| 2026-05-04 13:17 | 53.67141 | -6.57552 | 9345 ft | 250 kts | 284° |
| 2026-05-04 13:18 | 53.67537 | -6.60387 | 9235 ft | 245 kts | 284° |
| 2026-05-04 13:18 | 53.68040 | -6.63998 | 9116 ft | 231 kts | 284° |
| 2026-05-04 13:18 | 53.68285 | -6.65766 | 9030 ft | 225 kts | 284° |
| 2026-05-04 13:18 | 53.68638 | -6.68312 | 8766 ft | 223 kts | 283° |
| 2026-05-04 13:19 | 53.68991 | -6.70861 | 8486 ft | 222 kts | 283° |
| 2026-05-04 13:19 | 53.69336 | -6.73350 | 8274 ft | 219 kts | 283° |
| 2026-05-04 13:19 | 53.69454 | -6.75859 | 8193 ft | 219 kts | 261° |
| 2026-05-04 13:19 | 53.68885 | -6.78267 | 8108 ft | 223 kts | 238° |
| 2026-05-04 13:20 | 53.68041 | -6.80451 | 8083 ft | 221 kts | 238° |
| 2026-05-04 13:20 | 53.67211 | -6.82645 | 8089 ft | 223 kts | 237° |
| 2026-05-04 13:20 | 53.66082 | -6.84387 | 7998 ft | 223 kts | 206° |
| 2026-05-04 13:20 | 53.64573 | -6.84848 | 7710 ft | 225 kts | 173° |
| 2026-05-04 13:21 | 53.63111 | -6.83944 | 7414 ft | 226 kts | 152° |
| 2026-05-04 13:21 | 53.61768 | -6.82641 | 7147 ft | 225 kts | 149° |
| 2026-05-04 13:21 | 53.60426 | -6.81295 | 6903 ft | 224 kts | 150° |
| 2026-05-04 13:21 | 53.59083 | -6.79994 | 6652 ft | 222 kts | 151° |
| 2026-05-04 13:22 | 53.57737 | -6.78739 | 6410 ft | 221 kts | 152° |
| 2026-05-04 13:22 | 53.56388 | -6.77511 | 6126 ft | 220 kts | 153° |
| 2026-05-04 13:22 | 53.55030 | -6.76291 | 5866 ft | 220 kts | 153° |
| 2026-05-04 13:22 | 53.53690 | -6.75092 | 5610 ft | 219 kts | 153° |
| 2026-05-04 13:23 | 53.52338 | -6.73883 | 5352 ft | 219 kts | 152° |
| 2026-05-04 13:23 | 53.50998 | -6.72683 | 5100 ft | 218 kts | 152° |
| 2026-05-04 13:23 | 53.49673 | -6.71499 | 4842 ft | 218 kts | 152° |
| 2026-05-04 13:23 | 53.48343 | -6.70310 | 4610 ft | 217 kts | 152° |
| 2026-05-04 13:24 | 53.47046 | -6.69035 | 4409 ft | 213 kts | 139° |
| 2026-05-04 13:24 | 53.46186 | -6.67128 | 4303 ft | 201 kts | 112° |
| 2026-05-04 13:24 | 53.45800 | -6.64944 | 4201 ft | 191 kts | 98° |
| 2026-05-04 13:25 | 53.45495 | -6.60491 | 4002 ft | 193 kts | 94° |
| 2026-05-04 13:25 | 53.45371 | -6.58238 | 3792 ft | 192 kts | 93° |
| 2026-05-04 13:25 | 53.45250 | -6.56045 | 3563 ft | 191 kts | 93° |
| 2026-05-04 13:25 | 53.45128 | -6.53832 | 3313 ft | 191 kts | 93° |
| 2026-05-04 13:26 | 53.45008 | -6.51626 | 3096 ft | 191 kts | 93° |
| 2026-05-04 13:26 | 53.44887 | -6.49431 | 2879 ft | 186 kts | 93° |
| 2026-05-04 13:26 | 53.44772 | -6.47322 | 2598 ft | 176 kts | 93° |
| 2026-05-04 13:26 | 53.44663 | -6.45349 | 2372 ft | 164 kts | 93° |
| 2026-05-04 13:27 | 53.44561 | -6.43513 | 2143 ft | 151 kts | 93° |
| 2026-05-04 13:27 | 53.44471 | -6.41878 | 1954 ft | 137 kts | 93° |
| 2026-05-04 13:27 | 53.44389 | -6.40344 | 1769 ft | 128 kts | 93° |
| 2026-05-04 13:27 | 53.44307 | -6.38853 | 1594 ft | 129 kts | 93° |
| 2026-05-04 13:28 | 53.44226 | -6.37387 | 1422 ft | 128 kts | 92° |
| 2026-05-04 13:28 | 53.44146 | -6.35895 | 1235 ft | 128 kts | 92° |
| 2026-05-04 13:28 | 53.44064 | -6.34434 | 1053 ft | 127 kts | 92° |
| 2026-05-04 13:28 | 53.44014 | -6.33471 | 930 ft | 128 kts | 93° |
| 2026-05-04 13:29 | 53.43957 | -6.32450 | 817 ft | 126 kts | 92° |
| 2026-05-04 13:29 | 53.43874 | -6.30968 | 592 ft | 128 kts | 93° |
| 2026-05-04 13:29 | 53.43793 | -6.29556 | 424 ft | 123 kts | 93° |
| 2026-05-04 13:29 | 53.43716 | -6.28099 | 256 ft | 124 kts | 93° |
| 2026-05-04 13:30 | 53.43650 | -6.26755 | 215 ft | 98 kts | 94° |
| 2026-05-04 13:30 | 53.43600 | -6.25951 | 218 ft | 50 kts | 96° |
| 2026-05-04 13:30 | 53.43568 | -6.25471 | 213 ft | 38 kts | 99° |
| 2026-05-04 13:30 | 53.43506 | -6.25167 | 217 ft | 20 kts | 119° |
| 2026-05-04 13:31 | 53.43456 | -6.25018 | 211 ft | 10 kts | 121° |
| 2026-05-04 13:31 | 53.43442 | -6.24992 | 215 ft | 2 kts | 143° |
| 2026-05-04 13:31 | 53.43413 | -6.24988 | 211 ft | 6 kts | 185° |
| 2026-05-04 13:31 | 53.43379 | -6.25050 | 214 ft | 9 kts | 270° |
| 2026-05-04 13:32 | 53.43382 | -6.25094 | 211 ft | 6 kts | 276° |
| 2026-05-04 13:32 | 53.43388 | -6.25189 | 217 ft | 9 kts | 274° |
| 2026-05-04 13:32 | 53.43393 | -6.25324 | 210 ft | 14 kts | 274° |
| 2026-05-04 13:32 | 53.43403 | -6.25491 | 214 ft | 12 kts | 276° |
| 2026-05-04 13:33 | 53.43404 | -6.25615 | 210 ft | 11 kts | 247° |
| 2026-05-04 13:33 | 53.43332 | -6.25633 | 213 ft | 12 kts | 158° |
| 2026-05-04 13:33 | 53.43241 | -6.25568 | 215 ft | 16 kts | 156° |
| 2026-05-04 13:33 | 53.43212 | -6.25546 | 216 ft | 3 kts | 156° |
| 2026-05-04 13:34 | 53.43191 | -6.25509 | 211 ft | 6 kts | 127° |
| 2026-05-04 13:34 | 53.43153 | -6.25476 | 213 ft | 6 kts | 116° |
| 2026-05-04 13:34 | 53.43129 | -6.25389 | 213 ft | 10 kts | 131° |
| 2026-05-04 13:34 | 53.43059 | -6.25329 | 213 ft | 13 kts | 156° |
| 2026-05-04 13:35 | 53.42962 | -6.25256 | 213 ft | 17 kts | 156° |
| 2026-05-04 13:35 | 53.42783 | -6.25072 | 219 ft | 0 kts | 105° |
| 2026-05-04 13:35 | 53.42776 | -6.25046 | 214 ft | 4 kts | 123° |
| 2026-05-04 13:36 | 53.42740 | -6.25003 | 211 ft | 8 kts | 152° |
| 2026-05-04 13:36 | 53.42683 | -6.24943 | 212 ft | 7 kts | 147° |
| 2026-05-04 13:36 | 53.42668 | -6.24927 | 211 ft | 2 kts | 147° |
| 2026-05-04 13:43 | 53.42664 | -6.24923 | 214 ft | 2 kts | 147° |
| 2026-05-04 13:43 | 53.42625 | -6.24872 | 215 ft | 9 kts | 124° |
| 2026-05-04 13:43 | 53.42623 | -6.24789 | 211 ft | 7 kts | 90° |
| 2026-05-04 13:44 | 53.42623 | -6.24722 | 211 ft | 0 kts | 88° |
| 2026-05-04 13:44 | 53.42623 | -6.24721 | 211 ft | 2 kts | 88° |
| 2026-05-04 13:44 | 53.42623 | -6.24701 | 211 ft | 1 kts | 89° |
| 2026-05-04 13:45 | 53.42624 | -6.24692 | 211 ft | 0 kts | 89° |